sensor_id;sensor_type;location;lat;lon;timestamp;temperature;humidity
52016;DHT22;38032;53.326;6.472;2023-07-08T00:00:10;17.40;99.90
52016;DHT22;38032;53.326;6.472;2023-07-08T00:02:36;17.40;99.90
52016;DHT22;38032;53.326;6.472;2023-07-08T00:05:02;17.30;99.90
52016;DHT22;38032;53.326;6.472;2023-07-08T00:07:28;17.30;99.90
52016;DHT22;38032;53.326;6.472;2023-07-08T00:09:54;17.30;99.90
52016;DHT22;38032;53.326;6.472;2023-07-08T00:12:20;17.30;99.90
52016;DHT22;38032;53.326;6.472;2023-07-08T00:14:46;17.30;99.90
52016;DHT22;38032;53.326;6.472;2023-07-08T00:17:13;17.20;99.90
52016;DHT22;38032;53.326;6.472;2023-07-08T00:19:39;17.20;99.90
52016;DHT22;38032;53.326;6.472;2023-07-08T00:22:12;17.20;99.90
52016;DHT22;38032;53.326;6.472;2023-07-08T00:24:41;17.20;99.90
52016;DHT22;38032;53.326;6.472;2023-07-08T00:27:10;17.10;99.90
52016;DHT22;38032;53.326;6.472;2023-07-08T00:29:37;17.10;99.90
52016;DHT22;38032;53.326;6.472;2023-07-08T00:32:11;17.10;99.90
52016;DHT22;38032;53.326;6.472;2023-07-08T00:34:38;17.00;99.90
52016;DHT22;38032;53.326;6.472;2023-07-08T00:37:04;17.00;99.90
52016;DHT22;38032;53.326;6.472;2023-07-08T00:39:32;17.00;99.90
52016;DHT22;38032;53.326;6.472;2023-07-08T00:42:00;17.00;99.90
52016;DHT22;38032;53.326;6.472;2023-07-08T00:44:26;16.90;99.90
52016;DHT22;38032;53.326;6.472;2023-07-08T00:47:02;16.90;99.90
52016;DHT22;38032;53.326;6.472;2023-07-08T00:49:36;16.90;99.90
52016;DHT22;38032;53.326;6.472;2023-07-08T00:52:16;16.80;99.90
52016;DHT22;38032;53.326;6.472;2023-07-08T00:54:43;16.90;99.90
52016;DHT22;38032;53.326;6.472;2023-07-08T00:57:09;16.80;99.90
52016;DHT22;38032;53.326;6.472;2023-07-08T00:59:41;16.80;99.90
52016;DHT22;38032;53.326;6.472;2023-07-08T01:02:11;16.80;99.90
52016;DHT22;38032;53.326;6.472;2023-07-08T01:04:56;16.70;99.90
52016;DHT22;38032;53.326;6.472;2023-07-08T01:07:26;16.80;99.90
52016;DHT22;38032;53.326;6.472;2023-07-08T01:09:59;16.80;99.90
52016;DHT22;38032;53.326;6.472;2023-07-08T01:12:31;16.70;99.90
52016;DHT22;38032;53.326;6.472;2023-07-08T01:15:02;16.70;99.90
52016;DHT22;38032;53.326;6.472;2023-07-08T01:17:29;16.60;99.90
52016;DHT22;38032;53.326;6.472;2023-07-08T01:19:59;16.70;99.90
52016;DHT22;38032;53.326;6.472;2023-07-08T01:22:26;16.60;99.90
52016;DHT22;38032;53.326;6.472;2023-07-08T01:24:58;16.60;99.90
52016;DHT22;38032;53.326;6.472;2023-07-08T01:27:31;16.60;99.90
52016;DHT22;38032;53.326;6.472;2023-07-08T01:29:59;16.50;99.90
52016;DHT22;38032;53.326;6.472;2023-07-08T01:32:26;16.50;99.90
52016;DHT22;38032;53.326;6.472;2023-07-08T01:34:54;16.50;99.90
52016;DHT22;38032;53.326;6.472;2023-07-08T01:37:33;16.50;99.90
52016;DHT22;38032;53.326;6.472;2023-07-08T01:40:15;16.50;99.90
52016;DHT22;38032;53.326;6.472;2023-07-08T01:42:41;16.40;99.90
52016;DHT22;38032;53.326;6.472;2023-07-08T01:45:13;16.40;99.90
52016;DHT22;38032;53.326;6.472;2023-07-08T01:47:41;16.40;99.90
52016;DHT22;38032;53.326;6.472;2023-07-08T01:50:08;16.40;99.90
52016;DHT22;38032;53.326;6.472;2023-07-08T01:52:36;16.40;99.90
52016;DHT22;38032;53.326;6.472;2023-07-08T01:55:02;16.40;99.90
52016;DHT22;38032;53.326;6.472;2023-07-08T01:57:28;16.40;99.90
52016;DHT22;38032;53.326;6.472;2023-07-08T01:59:53;16.40;99.90
52016;DHT22;38032;53.326;6.472;2023-07-08T02:02:19;16.40;99.90
52016;DHT22;38032;53.326;6.472;2023-07-08T02:04:45;16.40;99.90
52016;DHT22;38032;53.326;6.472;2023-07-08T02:07:11;16.40;99.90
52016;DHT22;38032;53.326;6.472;2023-07-08T02:09:37;16.40;99.90
52016;DHT22;38032;53.326;6.472;2023-07-08T02:12:03;16.40;99.90
52016;DHT22;38032;53.326;6.472;2023-07-08T02:14:29;16.40;99.90
52016;DHT22;38032;53.326;6.472;2023-07-08T02:16:55;16.30;99.90
52016;DHT22;38032;53.326;6.472;2023-07-08T02:19:21;16.30;99.90
52016;DHT22;38032;53.326;6.472;2023-07-08T02:21:47;16.30;99.90
52016;DHT22;38032;53.326;6.472;2023-07-08T02:24:13;16.40;99.90
52016;DHT22;38032;53.326;6.472;2023-07-08T02:26:42;16.40;99.90
52016;DHT22;38032;53.326;6.472;2023-07-08T02:29:08;16.30;99.90
52016;DHT22;38032;53.326;6.472;2023-07-08T02:31:34;16.30;99.90
52016;DHT22;38032;53.326;6.472;2023-07-08T02:34:00;16.30;99.90
52016;DHT22;38032;53.326;6.472;2023-07-08T02:36:28;16.30;99.90
52016;DHT22;38032;53.326;6.472;2023-07-08T02:38:53;16.30;99.90
52016;DHT22;38032;53.326;6.472;2023-07-08T02:41:19;16.30;99.90
52016;DHT22;38032;53.326;6.472;2023-07-08T02:43:45;16.30;99.90
52016;DHT22;38032;53.326;6.472;2023-07-08T02:46:11;16.20;99.90
52016;DHT22;38032;53.326;6.472;2023-07-08T02:48:37;16.20;99.90
52016;DHT22;38032;53.326;6.472;2023-07-08T02:51:04;16.20;99.90
52016;DHT22;38032;53.326;6.472;2023-07-08T02:53:30;16.20;99.90
52016;DHT22;38032;53.326;6.472;2023-07-08T02:55:57;16.20;99.90
52016;DHT22;38032;53.326;6.472;2023-07-08T02:58:23;16.20;99.90
52016;DHT22;38032;53.326;6.472;2023-07-08T03:00:56;16.20;99.90
52016;DHT22;38032;53.326;6.472;2023-07-08T03:03:24;16.20;99.90
52016;DHT22;38032;53.326;6.472;2023-07-08T03:05:55;16.20;99.90
52016;DHT22;38032;53.326;6.472;2023-07-08T03:08:21;16.20;99.90
52016;DHT22;38032;53.326;6.472;2023-07-08T03:10:53;16.20;99.90
52016;DHT22;38032;53.326;6.472;2023-07-08T03:13:19;16.20;99.90
52016;DHT22;38032;53.326;6.472;2023-07-08T03:15:45;16.20;99.90
52016;DHT22;38032;53.326;6.472;2023-07-08T03:18:11;16.20;99.90
52016;DHT22;38032;53.326;6.472;2023-07-08T03:20:39;16.20;99.90
52016;DHT22;38032;53.326;6.472;2023-07-08T03:23:05;16.20;99.90
52016;DHT22;38032;53.326;6.472;2023-07-08T03:25:31;16.20;99.90
52016;DHT22;38032;53.326;6.472;2023-07-08T03:27:57;16.20;99.90
52016;DHT22;38032;53.326;6.472;2023-07-08T03:30:24;16.20;99.90
52016;DHT22;38032;53.326;6.472;2023-07-08T03:32:50;16.20;99.90
52016;DHT22;38032;53.326;6.472;2023-07-08T03:35:15;16.20;99.90
52016;DHT22;38032;53.326;6.472;2023-07-08T03:37:41;16.20;99.90
52016;DHT22;38032;53.326;6.472;2023-07-08T03:40:09;16.20;99.90
52016;DHT22;38032;53.326;6.472;2023-07-08T03:42:36;16.20;99.90
52016;DHT22;38032;53.326;6.472;2023-07-08T03:45:02;16.30;99.90
52016;DHT22;38032;53.326;6.472;2023-07-08T03:47:28;16.30;99.90
52016;DHT22;38032;53.326;6.472;2023-07-08T03:49:54;16.30;99.90
52016;DHT22;38032;53.326;6.472;2023-07-08T03:52:20;16.30;99.90
52016;DHT22;38032;53.326;6.472;2023-07-08T03:54:46;16.30;99.90
52016;DHT22;38032;53.326;6.472;2023-07-08T03:57:12;16.30;99.90
52016;DHT22;38032;53.326;6.472;2023-07-08T03:59:38;16.40;99.90
52016;DHT22;38032;53.326;6.472;2023-07-08T04:02:04;16.40;99.90
52016;DHT22;38032;53.326;6.472;2023-07-08T04:04:30;16.40;99.90
52016;DHT22;38032;53.326;6.472;2023-07-08T04:06:56;16.40;99.90
52016;DHT22;38032;53.326;6.472;2023-07-08T04:09:22;16.50;99.90
52016;DHT22;38032;53.326;6.472;2023-07-08T04:11:48;16.50;99.90
52016;DHT22;38032;53.326;6.472;2023-07-08T04:14:13;16.50;99.90
52016;DHT22;38032;53.326;6.472;2023-07-08T04:16:52;16.50;99.90
52016;DHT22;38032;53.326;6.472;2023-07-08T04:19:19;16.60;99.90
52016;DHT22;38032;53.326;6.472;2023-07-08T04:21:45;16.60;99.90
52016;DHT22;38032;53.326;6.472;2023-07-08T04:24:13;16.70;99.90
52016;DHT22;38032;53.326;6.472;2023-07-08T04:26:40;16.70;99.90
52016;DHT22;38032;53.326;6.472;2023-07-08T04:29:11;16.70;99.90
52016;DHT22;38032;53.326;6.472;2023-07-08T04:31:37;16.70;99.90
52016;DHT22;38032;53.326;6.472;2023-07-08T04:34:03;16.80;99.90
52016;DHT22;38032;53.326;6.472;2023-07-08T04:36:29;16.80;99.90
52016;DHT22;38032;53.326;6.472;2023-07-08T04:38:55;16.80;99.90
52016;DHT22;38032;53.326;6.472;2023-07-08T04:41:24;16.90;99.90
52016;DHT22;38032;53.326;6.472;2023-07-08T04:43:52;16.90;99.90
52016;DHT22;38032;53.326;6.472;2023-07-08T04:46:29;16.90;99.90
52016;DHT22;38032;53.326;6.472;2023-07-08T04:48:55;16.90;99.90
52016;DHT22;38032;53.326;6.472;2023-07-08T04:51:21;16.90;99.90
52016;DHT22;38032;53.326;6.472;2023-07-08T04:53:47;17.00;99.90
52016;DHT22;38032;53.326;6.472;2023-07-08T04:56:14;17.10;99.90
52016;DHT22;38032;53.326;6.472;2023-07-08T04:58:40;17.00;99.90
52016;DHT22;38032;53.326;6.472;2023-07-08T05:01:06;17.10;99.90
52016;DHT22;38032;53.326;6.472;2023-07-08T05:03:32;17.20;99.90
52016;DHT22;38032;53.326;6.472;2023-07-08T05:05:58;17.20;99.90
52016;DHT22;38032;53.326;6.472;2023-07-08T05:08:23;17.20;99.90
52016;DHT22;38032;53.326;6.472;2023-07-08T05:10:49;17.20;99.90
52016;DHT22;38032;53.326;6.472;2023-07-08T05:13:15;17.30;99.90
52016;DHT22;38032;53.326;6.472;2023-07-08T05:15:41;17.30;99.90
52016;DHT22;38032;53.326;6.472;2023-07-08T05:18:07;17.30;99.90
52016;DHT22;38032;53.326;6.472;2023-07-08T05:20:33;17.40;99.90
52016;DHT22;38032;53.326;6.472;2023-07-08T05:23:01;17.40;99.90
52016;DHT22;38032;53.326;6.472;2023-07-08T05:25:27;17.40;99.90
52016;DHT22;38032;53.326;6.472;2023-07-08T05:27:53;17.50;99.90
52016;DHT22;38032;53.326;6.472;2023-07-08T05:30:19;17.80;99.90
52016;DHT22;38032;53.326;6.472;2023-07-08T05:32:45;18.00;99.90
52016;DHT22;38032;53.326;6.472;2023-07-08T05:35:11;18.20;99.90
52016;DHT22;38032;53.326;6.472;2023-07-08T05:37:37;18.30;99.90
52016;DHT22;38032;53.326;6.472;2023-07-08T05:40:07;18.40;99.90
52016;DHT22;38032;53.326;6.472;2023-07-08T05:42:33;18.50;99.90
52016;DHT22;38032;53.326;6.472;2023-07-08T05:44:59;18.60;99.90
52016;DHT22;38032;53.326;6.472;2023-07-08T05:47:25;18.60;99.90
52016;DHT22;38032;53.326;6.472;2023-07-08T05:49:51;18.60;99.90
52016;DHT22;38032;53.326;6.472;2023-07-08T05:52:17;18.60;99.90
52016;DHT22;38032;53.326;6.472;2023-07-08T05:54:43;18.60;99.90
52016;DHT22;38032;53.326;6.472;2023-07-08T05:57:10;18.60;99.90
52016;DHT22;38032;53.326;6.472;2023-07-08T05:59:38;18.70;99.90
52016;DHT22;38032;53.326;6.472;2023-07-08T06:02:06;18.70;99.90
52016;DHT22;38032;53.326;6.472;2023-07-08T06:04:32;18.70;99.90
52016;DHT22;38032;53.326;6.472;2023-07-08T06:06:58;18.70;99.90
52016;DHT22;38032;53.326;6.472;2023-07-08T06:09:24;18.70;99.90
52016;DHT22;38032;53.326;6.472;2023-07-08T06:11:50;18.80;99.90
52016;DHT22;38032;53.326;6.472;2023-07-08T06:14:16;18.80;99.90
52016;DHT22;38032;53.326;6.472;2023-07-08T06:16:42;18.90;99.90
52016;DHT22;38032;53.326;6.472;2023-07-08T06:19:08;18.90;99.90
52016;DHT22;38032;53.326;6.472;2023-07-08T06:21:34;18.90;99.90
52016;DHT22;38032;53.326;6.472;2023-07-08T06:24:00;19.00;99.90
52016;DHT22;38032;53.326;6.472;2023-07-08T06:26:26;19.00;99.90
52016;DHT22;38032;53.326;6.472;2023-07-08T06:28:52;19.10;99.90
52016;DHT22;38032;53.326;6.472;2023-07-08T06:31:18;19.20;99.90
52016;DHT22;38032;53.326;6.472;2023-07-08T06:33:44;19.20;99.90
52016;DHT22;38032;53.326;6.472;2023-07-08T06:36:10;19.20;99.90
52016;DHT22;38032;53.326;6.472;2023-07-08T06:38:36;19.30;99.90
52016;DHT22;38032;53.326;6.472;2023-07-08T06:41:02;19.30;99.90
52016;DHT22;38032;53.326;6.472;2023-07-08T06:43:28;19.40;99.90
52016;DHT22;38032;53.326;6.472;2023-07-08T06:45:53;19.50;99.90
52016;DHT22;38032;53.326;6.472;2023-07-08T06:48:19;19.50;99.90
52016;DHT22;38032;53.326;6.472;2023-07-08T06:50:46;19.60;99.90
52016;DHT22;38032;53.326;6.472;2023-07-08T06:53:13;19.80;99.90
52016;DHT22;38032;53.326;6.472;2023-07-08T06:55:39;19.90;99.90
52016;DHT22;38032;53.326;6.472;2023-07-08T06:58:05;20.00;99.90
52016;DHT22;38032;53.326;6.472;2023-07-08T07:00:31;20.10;99.90
52016;DHT22;38032;53.326;6.472;2023-07-08T07:02:57;20.20;99.90
52016;DHT22;38032;53.326;6.472;2023-07-08T07:05:23;20.50;99.90
52016;DHT22;38032;53.326;6.472;2023-07-08T07:07:49;20.30;99.90
52016;DHT22;38032;53.326;6.472;2023-07-08T07:10:15;20.40;99.90
52016;DHT22;38032;53.326;6.472;2023-07-08T07:12:41;20.40;99.90
52016;DHT22;38032;53.326;6.472;2023-07-08T07:15:07;20.50;99.90
52016;DHT22;38032;53.326;6.472;2023-07-08T07:17:33;20.50;99.90
52016;DHT22;38032;53.326;6.472;2023-07-08T07:20:01;20.60;99.90
52016;DHT22;38032;53.326;6.472;2023-07-08T07:22:27;20.70;99.90
52016;DHT22;38032;53.326;6.472;2023-07-08T07:24:54;20.70;99.90
52016;DHT22;38032;53.326;6.472;2023-07-08T07:27:20;20.80;99.90
52016;DHT22;38032;53.326;6.472;2023-07-08T07:29:48;20.80;99.90
52016;DHT22;38032;53.326;6.472;2023-07-08T07:32:16;20.90;99.90
52016;DHT22;38032;53.326;6.472;2023-07-08T07:34:42;21.00;99.90
52016;DHT22;38032;53.326;6.472;2023-07-08T07:37:12;21.00;99.90
52016;DHT22;38032;53.326;6.472;2023-07-08T07:39:38;21.10;99.90
52016;DHT22;38032;53.326;6.472;2023-07-08T07:42:04;21.20;99.90
52016;DHT22;38032;53.326;6.472;2023-07-08T07:44:30;21.20;99.90
52016;DHT22;38032;53.326;6.472;2023-07-08T07:46:56;21.30;99.90
52016;DHT22;38032;53.326;6.472;2023-07-08T07:49:22;21.40;99.90
52016;DHT22;38032;53.326;6.472;2023-07-08T07:51:48;21.50;99.90
52016;DHT22;38032;53.326;6.472;2023-07-08T07:54:15;21.60;99.90
52016;DHT22;38032;53.326;6.472;2023-07-08T07:56:41;21.70;99.90
52016;DHT22;38032;53.326;6.472;2023-07-08T07:59:07;21.80;99.90
52016;DHT22;38032;53.326;6.472;2023-07-08T08:01:33;21.80;99.90
52016;DHT22;38032;53.326;6.472;2023-07-08T08:03:59;21.90;99.90
52016;DHT22;38032;53.326;6.472;2023-07-08T08:06:24;22.00;99.90
52016;DHT22;38032;53.326;6.472;2023-07-08T08:08:50;22.10;99.90
52016;DHT22;38032;53.326;6.472;2023-07-08T08:11:16;22.10;99.90
52016;DHT22;38032;53.326;6.472;2023-07-08T08:13:42;22.20;99.90
52016;DHT22;38032;53.326;6.472;2023-07-08T08:16:08;22.30;99.90
52016;DHT22;38032;53.326;6.472;2023-07-08T08:18:34;22.40;99.90
52016;DHT22;38032;53.326;6.472;2023-07-08T08:21:00;22.50;99.90
52016;DHT22;38032;53.326;6.472;2023-07-08T08:23:26;22.60;99.90
52016;DHT22;38032;53.326;6.472;2023-07-08T08:25:52;22.70;99.90
52016;DHT22;38032;53.326;6.472;2023-07-08T08:28:18;22.70;99.90
52016;DHT22;38032;53.326;6.472;2023-07-08T08:30:50;22.80;99.90
52016;DHT22;38032;53.326;6.472;2023-07-08T08:33:17;22.90;99.90
52016;DHT22;38032;53.326;6.472;2023-07-08T08:35:44;23.00;99.90
52016;DHT22;38032;53.326;6.472;2023-07-08T08:38:10;23.10;99.90
52016;DHT22;38032;53.326;6.472;2023-07-08T08:40:40;23.20;99.90
52016;DHT22;38032;53.326;6.472;2023-07-08T08:43:14;23.30;99.90
52016;DHT22;38032;53.326;6.472;2023-07-08T08:45:44;23.40;99.80
52016;DHT22;38032;53.326;6.472;2023-07-08T08:48:15;23.40;99.40
52016;DHT22;38032;53.326;6.472;2023-07-08T08:50:56;23.50;99.80
52016;DHT22;38032;53.326;6.472;2023-07-08T08:53:23;23.60;99.10
52016;DHT22;38032;53.326;6.472;2023-07-08T08:55:57;23.80;98.50
52016;DHT22;38032;53.326;6.472;2023-07-08T08:58:45;23.80;99.00
52016;DHT22;38032;53.326;6.472;2023-07-08T09:01:16;23.90;98.20
52016;DHT22;38032;53.326;6.472;2023-07-08T09:03:46;24.00;98.80
52016;DHT22;38032;53.326;6.472;2023-07-08T09:06:18;24.10;98.70
52016;DHT22;38032;53.326;6.472;2023-07-08T09:08:45;24.20;98.80
52016;DHT22;38032;53.326;6.472;2023-07-08T09:11:23;24.30;99.30
52016;DHT22;38032;53.326;6.472;2023-07-08T09:13:51;24.40;98.30
52016;DHT22;38032;53.326;6.472;2023-07-08T09:16:36;24.50;97.90
52016;DHT22;38032;53.326;6.472;2023-07-08T09:19:25;24.60;97.70
52016;DHT22;38032;53.326;6.472;2023-07-08T09:24:44;26.00;94.40
52016;DHT22;38032;53.326;6.472;2023-07-08T09:27:11;27.60;92.10
52016;DHT22;38032;53.326;6.472;2023-07-08T09:29:37;29.10;87.30
52016;DHT22;38032;53.326;6.472;2023-07-08T09:32:16;30.40;79.20
52016;DHT22;38032;53.326;6.472;2023-07-08T09:34:49;31.60;72.70
52016;DHT22;38032;53.326;6.472;2023-07-08T09:37:35;32.60;72.00
52016;DHT22;38032;53.326;6.472;2023-07-08T09:40:09;33.70;65.10
52016;DHT22;38032;53.326;6.472;2023-07-08T09:42:42;34.60;63.70
52016;DHT22;38032;53.326;6.472;2023-07-08T09:45:19;35.50;63.40
52016;DHT22;38032;53.326;6.472;2023-07-08T09:47:46;36.20;60.60
52016;DHT22;38032;53.326;6.472;2023-07-08T09:50:25;36.90;58.10
52016;DHT22;38032;53.326;6.472;2023-07-08T09:52:54;37.50;56.30
52016;DHT22;38032;53.326;6.472;2023-07-08T09:55:23;38.10;55.90
52016;DHT22;38032;53.326;6.472;2023-07-08T09:57:52;38.60;54.50
52016;DHT22;38032;53.326;6.472;2023-07-08T10:00:28;39.10;53.00
52016;DHT22;38032;53.326;6.472;2023-07-08T10:02:57;39.40;53.30
52016;DHT22;38032;53.326;6.472;2023-07-08T10:05:33;39.90;51.30
52016;DHT22;38032;53.326;6.472;2023-07-08T10:08:02;40.20;50.50
52016;DHT22;38032;53.326;6.472;2023-07-08T10:10:35;40.40;49.20
52016;DHT22;38032;53.326;6.472;2023-07-08T10:13:05;40.60;49.50
52016;DHT22;38032;53.326;6.472;2023-07-08T10:15:39;40.90;48.70
52016;DHT22;38032;53.326;6.472;2023-07-08T10:18:13;41.00;51.30
52016;DHT22;38032;53.326;6.472;2023-07-08T10:23:43;41.30;48.50
52016;DHT22;38032;53.326;6.472;2023-07-08T10:26:28;41.50;48.80
52016;DHT22;38032;53.326;6.472;2023-07-08T10:32:03;41.80;47.80
52016;DHT22;38032;53.326;6.472;2023-07-08T10:34:42;41.80;46.90
52016;DHT22;38032;53.326;6.472;2023-07-08T10:37:25;41.90;46.90
52016;DHT22;38032;53.326;6.472;2023-07-08T10:40:14;41.90;47.50
52016;DHT22;38032;53.326;6.472;2023-07-08T10:45:32;41.70;47.50
52016;DHT22;38032;53.326;6.472;2023-07-08T10:51:04;41.50;47.70
52016;DHT22;38032;53.326;6.472;2023-07-08T10:53:41;41.50;47.40
52016;DHT22;38032;53.326;6.472;2023-07-08T10:56:21;41.30;47.00
52016;DHT22;38032;53.326;6.472;2023-07-08T10:59:10;41.10;46.60
52016;DHT22;38032;53.326;6.472;2023-07-08T11:06:53;40.60;47.80
52016;DHT22;38032;53.326;6.472;2023-07-08T11:09:26;40.40;47.20
52016;DHT22;38032;53.326;6.472;2023-07-08T11:11:56;40.30;47.50
52016;DHT22;38032;53.326;6.472;2023-07-08T11:14:36;40.10;47.80
52016;DHT22;38032;53.326;6.472;2023-07-08T11:17:17;40.00;47.70
52016;DHT22;38032;53.326;6.472;2023-07-08T11:20:07;39.80;47.50
52016;DHT22;38032;53.326;6.472;2023-07-08T11:22:45;39.70;47.80
52016;DHT22;38032;53.326;6.472;2023-07-08T11:25:18;39.50;49.10
52016;DHT22;38032;53.326;6.472;2023-07-08T11:27:47;39.30;48.90
52016;DHT22;38032;53.326;6.472;2023-07-08T11:30:19;38.90;48.20
52016;DHT22;38032;53.326;6.472;2023-07-08T11:32:50;38.80;48.40
52016;DHT22;38032;53.326;6.472;2023-07-08T11:35:27;38.60;49.00
52016;DHT22;38032;53.326;6.472;2023-07-08T11:37:54;38.30;48.80
52016;DHT22;38032;53.326;6.472;2023-07-08T11:40:22;38.10;49.70
52016;DHT22;38032;53.326;6.472;2023-07-08T11:42:51;37.90;50.30
52016;DHT22;38032;53.326;6.472;2023-07-08T11:47:45;37.40;49.50
52016;DHT22;38032;53.326;6.472;2023-07-08T11:50:21;37.30;50.70
52016;DHT22;38032;53.326;6.472;2023-07-08T11:52:52;37.00;51.20
52016;DHT22;38032;53.326;6.472;2023-07-08T11:55:25;36.70;51.30
52016;DHT22;38032;53.326;6.472;2023-07-08T11:57:54;36.30;51.90
52016;DHT22;38032;53.326;6.472;2023-07-08T12:00:25;36.00;51.70
52016;DHT22;38032;53.326;6.472;2023-07-08T12:02:55;35.70;52.70
52016;DHT22;38032;53.326;6.472;2023-07-08T12:05:40;35.60;52.50
52016;DHT22;38032;53.326;6.472;2023-07-08T12:08:15;35.30;52.60
52016;DHT22;38032;53.326;6.472;2023-07-08T12:10:50;35.10;52.30
52016;DHT22;38032;53.326;6.472;2023-07-08T12:13:22;35.00;51.90
52016;DHT22;38032;53.326;6.472;2023-07-08T12:15:48;34.80;52.60
52016;DHT22;38032;53.326;6.472;2023-07-08T12:18:18;34.60;52.80
52016;DHT22;38032;53.326;6.472;2023-07-08T12:20:48;34.50;52.60
52016;DHT22;38032;53.326;6.472;2023-07-08T12:23:18;34.30;52.70
52016;DHT22;38032;53.326;6.472;2023-07-08T12:25:45;34.30;52.70
52016;DHT22;38032;53.326;6.472;2023-07-08T12:28:11;34.10;52.10
52016;DHT22;38032;53.326;6.472;2023-07-08T12:30:38;34.00;53.10
52016;DHT22;38032;53.326;6.472;2023-07-08T12:33:11;34.00;53.90
52016;DHT22;38032;53.326;6.472;2023-07-08T12:35:38;33.90;55.40
52016;DHT22;38032;53.326;6.472;2023-07-08T12:40:37;33.90;55.40
52016;DHT22;38032;53.326;6.472;2023-07-08T12:43:09;33.80;55.30
52016;DHT22;38032;53.326;6.472;2023-07-08T12:45:36;33.80;54.80
52016;DHT22;38032;53.326;6.472;2023-07-08T12:48:03;33.70;54.20
52016;DHT22;38032;53.326;6.472;2023-07-08T12:50:29;33.70;53.70
52016;DHT22;38032;53.326;6.472;2023-07-08T12:52:55;33.70;54.40
52016;DHT22;38032;53.326;6.472;2023-07-08T12:55:22;33.70;54.80
52016;DHT22;38032;53.326;6.472;2023-07-08T12:57:51;33.70;55.50
52016;DHT22;38032;53.326;6.472;2023-07-08T13:00:26;33.70;54.80
52016;DHT22;38032;53.326;6.472;2023-07-08T13:02:59;33.60;54.20
52016;DHT22;38032;53.326;6.472;2023-07-08T13:05:28;33.50;53.70
52016;DHT22;38032;53.326;6.472;2023-07-08T13:07:55;33.50;53.40
52016;DHT22;38032;53.326;6.472;2023-07-08T13:10:24;33.50;55.20
52016;DHT22;38032;53.326;6.472;2023-07-08T13:12:55;33.50;54.80
52016;DHT22;38032;53.326;6.472;2023-07-08T13:15:28;33.50;54.70
52016;DHT22;38032;53.326;6.472;2023-07-08T13:17:56;33.40;53.90
52016;DHT22;38032;53.326;6.472;2023-07-08T13:20:22;33.50;54.20
52016;DHT22;38032;53.326;6.472;2023-07-08T13:22:55;33.50;55.70
52016;DHT22;38032;53.326;6.472;2023-07-08T13:25:28;33.60;55.30
52016;DHT22;38032;53.326;6.472;2023-07-08T13:27:56;33.60;54.80
52016;DHT22;38032;53.326;6.472;2023-07-08T13:30:25;33.60;55.80
52016;DHT22;38032;53.326;6.472;2023-07-08T13:32:54;33.60;54.20
52016;DHT22;38032;53.326;6.472;2023-07-08T13:37:56;33.60;54.70
52016;DHT22;38032;53.326;6.472;2023-07-08T13:40:22;33.70;54.00
52016;DHT22;38032;53.326;6.472;2023-07-08T13:42:49;33.70;55.20
52016;DHT22;38032;53.326;6.472;2023-07-08T13:45:19;33.70;55.50
52016;DHT22;38032;53.326;6.472;2023-07-08T13:47:59;33.70;54.40
52016;DHT22;38032;53.326;6.472;2023-07-08T13:50:29;33.70;55.20
52016;DHT22;38032;53.326;6.472;2023-07-08T13:52:56;33.70;54.60
52016;DHT22;38032;53.326;6.472;2023-07-08T13:55:23;33.70;55.40
52016;DHT22;38032;53.326;6.472;2023-07-08T13:58:01;33.70;54.40
52016;DHT22;38032;53.326;6.472;2023-07-08T14:00:30;33.70;55.40
52016;DHT22;38032;53.326;6.472;2023-07-08T14:02:57;33.70;55.60
52016;DHT22;38032;53.326;6.472;2023-07-08T14:05:23;33.70;55.40
52016;DHT22;38032;53.326;6.472;2023-07-08T14:07:49;33.70;55.20
52016;DHT22;38032;53.326;6.472;2023-07-08T14:10:15;33.70;55.30
52016;DHT22;38032;53.326;6.472;2023-07-08T14:12:42;33.70;53.80
52016;DHT22;38032;53.326;6.472;2023-07-08T14:15:09;33.70;53.80
52016;DHT22;38032;53.326;6.472;2023-07-08T14:17:35;33.70;54.10
52016;DHT22;38032;53.326;6.472;2023-07-08T14:20:08;33.70;54.10
52016;DHT22;38032;53.326;6.472;2023-07-08T14:22:35;33.70;55.20
52016;DHT22;38032;53.326;6.472;2023-07-08T14:25:07;33.70;54.50
52016;DHT22;38032;53.326;6.472;2023-07-08T14:27:33;33.70;55.50
52016;DHT22;38032;53.326;6.472;2023-07-08T14:29:59;33.80;54.70
52016;DHT22;38032;53.326;6.472;2023-07-08T14:32:28;33.80;54.80
52016;DHT22;38032;53.326;6.472;2023-07-08T14:37:42;33.80;55.00
52016;DHT22;38032;53.326;6.472;2023-07-08T14:40:33;33.70;54.30
52016;DHT22;38032;53.326;6.472;2023-07-08T14:43:02;33.70;55.80
52016;DHT22;38032;53.326;6.472;2023-07-08T14:45:31;33.70;55.60
52016;DHT22;38032;53.326;6.472;2023-07-08T14:47:58;33.70;55.40
52016;DHT22;38032;53.326;6.472;2023-07-08T14:50:24;33.60;55.40
52016;DHT22;38032;53.326;6.472;2023-07-08T14:52:52;33.50;54.50
52016;DHT22;38032;53.326;6.472;2023-07-08T14:55:18;33.50;54.00
52016;DHT22;38032;53.326;6.472;2023-07-08T14:57:46;33.60;54.00
52016;DHT22;38032;53.326;6.472;2023-07-08T15:00:15;33.60;53.70
52016;DHT22;38032;53.326;6.472;2023-07-08T15:02:44;33.60;53.70
52016;DHT22;38032;53.326;6.472;2023-07-08T15:05:21;33.60;55.60
52016;DHT22;38032;53.326;6.472;2023-07-08T15:07:49;33.60;55.00
52016;DHT22;38032;53.326;6.472;2023-07-08T15:10:15;33.50;55.70
52016;DHT22;38032;53.326;6.472;2023-07-08T15:12:41;33.60;56.50
52016;DHT22;38032;53.326;6.472;2023-07-08T15:15:17;33.50;56.40
52016;DHT22;38032;53.326;6.472;2023-07-08T15:17:43;33.50;55.70
52016;DHT22;38032;53.326;6.472;2023-07-08T15:20:13;33.50;54.50
52016;DHT22;38032;53.326;6.472;2023-07-08T15:22:41;33.50;55.60
52016;DHT22;38032;53.326;6.472;2023-07-08T15:25:10;33.50;56.40
52016;DHT22;38032;53.326;6.472;2023-07-08T15:27:36;33.50;56.70
52016;DHT22;38032;53.326;6.472;2023-07-08T15:30:02;33.50;55.10
52016;DHT22;38032;53.326;6.472;2023-07-08T15:32:29;33.40;54.50
52016;DHT22;38032;53.326;6.472;2023-07-08T15:34:55;33.40;54.00
52016;DHT22;38032;53.326;6.472;2023-07-08T15:37:21;33.40;54.40
52016;DHT22;38032;53.326;6.472;2023-07-08T15:39:46;33.30;54.90
52016;DHT22;38032;53.326;6.472;2023-07-08T15:42:13;33.40;56.50
52016;DHT22;38032;53.326;6.472;2023-07-08T15:44:39;33.30;56.60
52016;DHT22;38032;53.326;6.472;2023-07-08T15:47:07;33.30;56.30
52016;DHT22;38032;53.326;6.472;2023-07-08T15:49:36;33.20;55.50
52016;DHT22;38032;53.326;6.472;2023-07-08T15:52:01;33.20;54.20
52016;DHT22;38032;53.326;6.472;2023-07-08T15:54:27;33.20;54.50
52016;DHT22;38032;53.326;6.472;2023-07-08T15:56:54;31.50;53.10
52016;DHT22;38032;53.326;6.472;2023-07-08T15:59:24;33.20;55.00
52016;DHT22;38032;53.326;6.472;2023-07-08T16:01:52;33.10;55.30
52016;DHT22;38032;53.326;6.472;2023-07-08T16:04:24;33.10;56.10
52016;DHT22;38032;53.326;6.472;2023-07-08T16:06:51;33.00;56.00
52016;DHT22;38032;53.326;6.472;2023-07-08T16:09:16;33.00;56.40